createdAt,value
2017-08-17T00:02:14.452Z,8.60
2017-08-17T00:04:41.946Z,9.30
2017-08-17T00:07:09.437Z,8.80
2017-08-17T00:15:22.621Z,8.70
2017-08-17T00:17:50.095Z,8.65
2017-08-17T00:20:17.586Z,7.60
2017-08-17T00:22:45.078Z,7.55
2017-08-17T00:25:12.563Z,6.43
2017-08-17T00:27:40.043Z,6.35
2017-08-17T00:30:08.286Z,6.43
2017-08-17T00:32:35.772Z,6.57
2017-08-17T00:35:04.052Z,7.37
2017-08-17T00:37:32.298Z,6.75
2017-08-17T00:39:59.775Z,7.15
2017-08-17T00:42:27.256Z,6.40
2017-08-17T00:44:54.748Z,6.28
2017-08-17T00:47:22.226Z,6.22
2017-08-17T00:49:49.726Z,6.12
2017-08-17T00:52:17.226Z,6.97
2017-08-17T00:54:44.754Z,6.97
2017-08-17T00:57:12.254Z,7.18
2017-08-17T00:59:39.744Z,6.75
2017-08-17T01:02:08.005Z,6.60
2017-08-17T01:04:35.505Z,6.68
2017-08-17T01:07:02.992Z,6.32
2017-08-17T01:09:30.512Z,6.75
2017-08-17T01:11:58.025Z,6.32
2017-08-17T01:14:25.522Z,6.87
2017-08-17T01:16:53.022Z,6.60
2017-08-17T01:19:20.534Z,6.20
2017-08-17T01:21:48.808Z,6.90
2017-08-17T01:24:16.356Z,6.82
2017-08-17T01:26:44.620Z,6.70
2017-08-17T01:29:12.104Z,6.75
2017-08-17T01:31:39.615Z,6.03
2017-08-17T01:34:07.118Z,5.90
2017-08-17T01:36:35.394Z,6.55
2017-08-17T01:39:02.891Z,5.50
2017-08-17T01:41:30.428Z,6.03
2017-08-17T01:43:57.919Z,5.93
2017-08-17T01:46:26.135Z,6.93
2017-08-17T01:48:54.398Z,6.78
2017-08-17T01:51:21.892Z,6.32
2017-08-17T01:53:49.394Z,7.07
2017-08-17T01:56:16.880Z,7.32
2017-08-17T01:58:44.367Z,6.43
2017-08-17T02:01:11.863Z,7.55
2017-08-17T02:03:39.375Z,6.68
2017-08-17T02:06:06.852Z,9.43
2017-08-17T02:08:34.360Z,6.55
2017-08-17T02:11:01.856Z,5.97
2017-08-17T02:13:29.335Z,5.50
2017-08-17T02:15:56.827Z,6.60
2017-08-17T02:18:24.308Z,6.28
2017-08-17T02:20:52.568Z,6.03
2017-08-17T02:23:20.061Z,7.10
2017-08-17T02:25:47.551Z,6.87
2017-08-17T02:28:15.049Z,6.78
2017-08-17T02:30:42.533Z,7.20
2017-08-17T02:33:10.026Z,7.20
2017-08-17T02:35:37.547Z,7.35
2017-08-17T02:38:05.043Z,7.10
2017-08-17T02:40:32.560Z,7.90
2017-08-17T02:43:00.746Z,7.55
2017-08-17T02:45:28.239Z,7.50
2017-08-17T02:47:55.720Z,8.50
2017-08-17T02:50:23.990Z,9.02
2017-08-17T02:52:51.485Z,8.65
2017-08-17T02:55:18.980Z,9.85
2017-08-17T02:57:46.464Z,9.15
2017-08-17T03:00:13.960Z,9.00
2017-08-17T03:02:41.452Z,9.10
2017-08-17T03:05:09.178Z,10.93
2017-08-17T03:07:36.667Z,9.20
2017-08-17T03:10:04.161Z,9.00
2017-08-17T03:12:32.435Z,8.07
2017-08-17T03:15:01.274Z,9.20
2017-08-17T03:17:28.748Z,8.95
2017-08-17T03:19:56.239Z,8.30
2017-08-17T03:22:23.729Z,8.95
2017-08-17T03:24:51.229Z,9.77
2017-08-17T03:27:18.733Z,7.95
2017-08-17T03:29:46.996Z,8.82
2017-08-17T03:32:14.514Z,8.77
2017-08-17T03:34:42.007Z,8.60
2017-08-17T03:37:09.518Z,7.82
2017-08-17T03:39:37.007Z,8.93
2017-08-17T03:42:04.504Z,8.73
2017-08-17T03:44:31.987Z,9.77
2017-08-17T03:46:59.475Z,8.60
2017-08-17T03:49:26.971Z,8.35
2017-08-17T03:51:54.459Z,9.88
2017-08-17T03:54:21.963Z,8.95
2017-08-17T03:56:49.478Z,9.98
2017-08-17T03:59:16.989Z,9.20
2017-08-17T04:01:45.270Z,8.85
2017-08-17T04:04:12.773Z,10.90
2017-08-17T04:06:40.259Z,9.40
2017-08-17T04:09:07.753Z,8.60
2017-08-17T04:11:35.247Z,9.43
2017-08-17T04:14:02.736Z,8.82
2017-08-17T04:16:30.223Z,8.88
2017-08-17T04:18:57.713Z,8.90
2017-08-17T04:21:25.204Z,9.25
2017-08-17T04:23:52.716Z,13.60
2017-08-17T04:26:20.217Z,10.90
2017-08-17T04:28:47.709Z,11.90
2017-08-17T04:31:15.229Z,11.52
2017-08-17T04:33:42.728Z,10.60
2017-08-17T04:36:10.229Z,12.02
2017-08-17T04:38:37.724Z,11.90
2017-08-17T04:41:05.220Z,10.95
2017-08-17T04:43:32.706Z,10.55
2017-08-17T04:46:00.195Z,11.20
2017-08-17T04:48:27.676Z,10.75
2017-08-17T04:50:55.184Z,11.80
2017-08-17T04:53:22.656Z,9.70
2017-08-17T04:55:50.163Z,10.45
2017-08-17T04:58:35.376Z,9.63
2017-08-17T05:01:02.886Z,11.25
2017-08-17T05:03:30.368Z,9.27
2017-08-17T05:05:57.851Z,9.48
2017-08-17T05:08:25.327Z,10.63
2017-08-17T05:10:52.819Z,11.23
2017-08-17T05:13:20.316Z,10.95
2017-08-17T05:15:47.801Z,13.13
2017-08-17T05:18:15.281Z,13.48
2017-08-17T05:20:42.805Z,12.48
2017-08-17T05:23:10.308Z,13.95
2017-08-17T05:25:37.807Z,12.43
2017-08-17T05:28:05.303Z,13.57
2017-08-17T05:30:33.564Z,14.87
2017-08-17T05:33:01.087Z,15.65
2017-08-17T05:35:28.574Z,16.58
2017-08-17T05:37:56.060Z,16.05
2017-08-17T05:40:23.542Z,14.07
2017-08-17T05:42:51.051Z,15.20
2017-08-17T05:45:19.302Z,16.65
2017-08-17T05:47:46.801Z,15.60
2017-08-17T05:50:15.863Z,17.40
2017-08-17T05:52:43.361Z,17.00
2017-08-17T05:55:11.615Z,16.85
2017-08-17T05:57:39.199Z,17.85
2017-08-17T06:00:06.691Z,17.20
2017-08-17T06:02:34.201Z,17.77
2017-08-17T06:05:02.449Z,18.05
2017-08-17T06:07:29.936Z,18.23
2017-08-17T06:09:58.194Z,17.62
2017-08-17T06:12:26.457Z,18.00
2017-08-17T06:14:53.936Z,19.85
2017-08-17T06:17:21.423Z,18.15
2017-08-17T06:19:48.917Z,20.62
2017-08-17T06:22:16.409Z,17.15
2017-08-17T06:24:43.910Z,18.67
2017-08-17T06:27:11.399Z,18.15
2017-08-17T06:29:38.897Z,19.23
2017-08-17T06:32:06.387Z,19.60
2017-08-17T06:34:33.887Z,19.62
2017-08-17T06:37:02.145Z,21.42
2017-08-17T06:39:29.648Z,20.70
2017-08-17T06:41:57.139Z,18.60
2017-08-17T06:44:24.668Z,19.75
2017-08-17T06:46:52.164Z,22.33
2017-08-17T06:49:19.656Z,19.73
2017-08-17T06:51:47.918Z,17.60
2017-08-17T06:54:15.413Z,19.90
2017-08-17T06:56:42.899Z,16.73
2017-08-17T06:59:10.400Z,20.05
2017-08-17T07:01:37.887Z,22.65
2017-08-17T07:04:05.361Z,21.53
2017-08-17T07:06:32.859Z,21.20
2017-08-17T07:09:00.364Z,22.37
2017-08-17T07:11:27.852Z,20.88
2017-08-17T07:13:55.366Z,21.23
2017-08-17T07:16:22.863Z,25.10
2017-08-17T07:18:50.364Z,26.42
2017-08-17T07:21:17.860Z,23.05
2017-08-17T07:23:45.354Z,25.20
2017-08-17T07:26:12.844Z,25.10
2017-08-17T07:28:41.095Z,20.57
2017-08-17T07:31:08.589Z,25.10
2017-08-17T07:33:36.091Z,27.93
2017-08-17T07:36:03.588Z,25.33
2017-08-17T07:38:31.842Z,25.00
2017-08-17T07:40:59.334Z,23.27
2017-08-17T07:43:26.850Z,23.57
2017-08-17T07:45:54.337Z,20.63
2017-08-17T07:48:22.607Z,20.57
2017-08-17T07:50:50.092Z,24.00
2017-08-17T07:53:17.581Z,22.30
2017-08-17T07:55:45.076Z,21.63
2017-08-17T07:58:12.564Z,18.57
2017-08-17T08:00:40.061Z,19.53
2017-08-17T08:03:07.545Z,18.77
2017-08-17T08:05:35.036Z,20.67
2017-08-17T08:08:02.529Z,21.40
2017-08-17T08:10:30.015Z,19.70
2017-08-17T08:12:57.503Z,19.17
2017-08-17T08:15:24.999Z,20.40
2017-08-17T08:17:52.488Z,19.53
2017-08-17T08:20:19.993Z,18.80
2017-08-17T08:22:47.480Z,17.47
2017-08-17T08:25:14.990Z,19.40
2017-08-17T08:27:42.481Z,17.13
2017-08-17T08:30:09.970Z,17.70
2017-08-17T08:32:37.465Z,19.90
2017-08-17T08:35:04.960Z,20.47
2017-08-17T08:37:32.446Z,20.40
2017-08-17T08:39:59.926Z,19.00
2017-08-17T08:42:28.183Z,20.43
2017-08-17T08:44:55.674Z,17.40
2017-08-17T08:47:23.159Z,29.73
2017-08-17T08:49:50.685Z,19.40
2017-08-17T08:52:18.182Z,19.30
2017-08-17T08:54:45.668Z,20.83
2017-08-17T08:57:13.167Z,17.50
2017-08-17T08:59:40.658Z,17.63
2017-08-17T09:02:08.149Z,17.77
2017-08-17T09:04:35.659Z,17.87
2017-08-17T09:07:03.152Z,18.20
2017-08-17T09:09:30.647Z,17.93
2017-08-17T09:11:58.172Z,18.13
2017-08-17T09:14:25.657Z,18.37
2017-08-17T09:16:54.024Z,16.73
2017-08-17T09:19:22.277Z,18.40
2017-08-17T09:21:49.760Z,19.03
2017-08-17T09:24:17.247Z,16.13
2017-08-17T09:26:44.736Z,16.87
2017-08-17T09:29:12.227Z,16.70
2017-08-17T09:31:39.710Z,15.60
2017-08-17T09:34:07.196Z,17.13
2017-08-17T09:36:34.671Z,16.00
2017-08-17T09:39:02.151Z,14.40
2017-08-17T09:41:29.639Z,15.73
2017-08-17T09:43:57.129Z,14.13
2017-08-17T09:46:24.612Z,15.70
2017-08-17T09:48:52.140Z,14.00
2017-08-17T09:51:19.629Z,16.40
2017-08-17T09:53:47.116Z,13.37
2017-08-17T09:56:14.592Z,13.23
2017-08-17T09:58:42.080Z,12.80
2017-08-17T10:01:09.607Z,13.00
2017-08-17T10:03:37.104Z,12.43
2017-08-17T10:06:04.588Z,11.90
2017-08-17T10:08:32.060Z,11.13
2017-08-17T10:10:59.545Z,12.40
2017-08-17T10:13:27.030Z,12.43
2017-08-17T10:15:54.552Z,11.43
2017-08-17T10:18:22.043Z,12.10
2017-08-17T10:20:49.563Z,10.50
2017-08-17T10:23:17.043Z,10.97
2017-08-17T10:25:44.528Z,10.97
2017-08-17T10:28:11.999Z,9.80
2017-08-17T10:30:39.496Z,10.40
2017-08-17T10:33:06.985Z,11.87
2017-08-17T10:35:34.469Z,10.40
2017-08-17T10:38:01.961Z,12.43
2017-08-17T10:40:29.443Z,10.60
2017-08-17T10:42:56.960Z,12.00
2017-08-17T10:45:25.221Z,10.00
2017-08-17T10:47:52.748Z,11.27
2017-08-17T10:50:20.230Z,8.93
2017-08-17T10:52:47.728Z,9.47
2017-08-17T10:55:15.204Z,10.17
2017-08-17T10:57:42.707Z,9.20
2017-08-17T11:00:10.198Z,9.60
2017-08-17T11:02:37.675Z,10.50
2017-08-17T11:05:05.148Z,8.63
2017-08-17T11:07:32.635Z,10.00
2017-08-17T11:10:00.111Z,8.97
2017-08-17T11:12:28.356Z,9.70
2017-08-17T11:14:55.860Z,8.37
2017-08-17T11:17:23.399Z,8.70
2017-08-17T11:19:50.875Z,8.80
2017-08-17T11:22:18.360Z,8.37
2017-08-17T11:24:45.900Z,8.10
2017-08-17T11:27:13.380Z,8.50
2017-08-17T11:29:40.893Z,8.57
2017-08-17T11:32:09.146Z,10.67
2017-08-17T11:34:36.629Z,8.60
2017-08-17T11:37:04.103Z,9.00
2017-08-17T11:39:31.599Z,8.43
2017-08-17T11:41:59.076Z,7.90
2017-08-17T11:44:26.551Z,8.50
2017-08-17T11:46:54.023Z,8.87
2017-08-17T11:49:21.508Z,10.10
2017-08-17T11:51:48.983Z,9.57
2017-08-17T11:54:16.459Z,8.60
2017-08-17T11:56:43.933Z,9.10
2017-08-17T11:59:11.415Z,7.83
2017-08-17T12:01:38.905Z,7.80
2017-08-17T12:04:06.384Z,7.67
2017-08-17T12:06:33.872Z,7.90
2017-08-17T12:09:02.120Z,7.60
2017-08-17T12:11:29.619Z,7.90
2017-08-17T12:13:57.099Z,7.73
2017-08-17T12:16:24.573Z,7.57
2017-08-17T12:18:52.070Z,7.70
2017-08-17T12:21:20.328Z,7.33
2017-08-17T12:23:47.817Z,7.73
2017-08-17T12:26:16.096Z,7.20
2017-08-17T12:28:44.335Z,7.10
2017-08-17T12:31:11.822Z,7.70
2017-08-17T12:33:40.059Z,6.97
2017-08-17T12:36:07.532Z,6.30
2017-08-17T12:38:35.016Z,7.33
2017-08-17T12:41:02.488Z,7.43
2017-08-17T12:43:29.986Z,7.30
2017-08-17T12:45:57.455Z,6.83
2017-08-17T12:48:24.931Z,7.43
2017-08-17T12:50:52.409Z,7.23
2017-08-17T12:53:19.918Z,7.30
2017-08-17T12:55:47.392Z,7.37
2017-08-17T12:58:14.879Z,7.57
2017-08-17T13:00:42.356Z,7.07
2017-08-17T13:03:09.834Z,8.83
2017-08-17T13:05:37.311Z,6.33
2017-08-17T13:08:04.787Z,7.03
2017-08-17T13:10:32.260Z,6.77
2017-08-17T13:13:00.498Z,7.47
2017-08-17T13:15:27.972Z,6.80
2017-08-17T13:17:55.458Z,7.73
2017-08-17T13:20:22.931Z,7.40
2017-08-17T13:22:50.417Z,7.07
2017-08-17T13:25:17.892Z,7.27
2017-08-17T13:27:45.364Z,7.67
2017-08-17T13:30:13.623Z,7.43
2017-08-17T13:32:41.102Z,7.47
2017-08-17T13:35:08.600Z,7.30
2017-08-17T13:37:36.076Z,7.00
2017-08-17T13:40:03.543Z,7.13
2017-08-17T13:42:31.024Z,7.63
2017-08-17T13:44:58.506Z,7.23
2017-08-17T13:47:25.983Z,6.63
2017-08-17T13:49:53.466Z,11.30
2017-08-17T13:52:20.953Z,7.30
2017-08-17T13:54:48.460Z,6.53
2017-08-17T13:57:15.939Z,6.97
2017-08-17T13:59:43.433Z,6.00
2017-08-17T14:02:11.680Z,6.27
2017-08-17T14:04:39.161Z,5.77
2017-08-17T14:07:06.639Z,5.83
2017-08-17T14:09:34.113Z,5.60
2017-08-17T14:12:01.616Z,6.00
2017-08-17T14:14:29.102Z,6.10
2017-08-17T14:16:57.361Z,6.70
2017-08-17T14:19:24.842Z,6.40
2017-08-17T14:21:52.330Z,6.80
2017-08-17T14:24:19.815Z,6.33
2017-08-17T14:26:47.315Z,7.10
2017-08-17T14:29:14.807Z,7.70
2017-08-17T14:31:42.295Z,6.50
2017-08-17T14:34:09.779Z,7.10
2017-08-17T14:36:37.251Z,7.83
2017-08-17T14:39:04.724Z,6.47
2017-08-17T14:41:32.203Z,6.80
2017-08-17T14:43:59.688Z,7.07
2017-08-17T14:46:27.159Z,7.30
2017-08-17T14:48:55.398Z,7.60
2017-08-17T14:51:22.871Z,7.40
2017-08-17T14:53:50.373Z,6.90
2017-08-17T14:56:17.852Z,7.40
2017-08-17T14:58:45.350Z,8.93
2017-08-17T15:01:12.829Z,8.93
2017-08-17T15:03:40.308Z,7.83
2017-08-17T15:06:07.792Z,8.50
2017-08-17T15:08:35.264Z,8.50
2017-08-17T15:11:02.754Z,10.90
2017-08-17T15:13:31.024Z,9.80
2017-08-17T15:15:58.515Z,9.53
2017-08-17T15:18:26.015Z,9.20
2017-08-17T15:20:53.487Z,9.50
2017-08-17T15:23:20.967Z,9.53
2017-08-17T15:25:49.207Z,10.10
2017-08-17T15:28:16.694Z,10.13
2017-08-17T15:30:44.170Z,10.23
2017-08-17T15:33:11.671Z,9.07
2017-08-17T15:35:39.205Z,9.50
2017-08-17T15:38:06.684Z,10.67
2017-08-17T15:40:34.168Z,9.53
2017-08-17T15:43:01.647Z,11.33
2017-08-17T15:45:29.158Z,10.70
2017-08-17T15:47:56.640Z,11.20
2017-08-17T15:50:24.216Z,10.73
2017-08-17T15:52:52.467Z,11.30
2017-08-17T15:55:19.964Z,13.70
2017-08-17T15:57:47.451Z,12.43
2017-08-17T16:00:14.962Z,13.10
2017-08-17T16:02:43.258Z,10.83
2017-08-17T16:05:10.775Z,12.10
2017-08-17T16:07:38.296Z,14.07
2017-08-17T16:10:05.795Z,12.67
2017-08-17T16:12:33.283Z,13.30
2017-08-17T16:15:00.769Z,10.80
2017-08-17T16:17:28.254Z,12.87
2017-08-17T16:19:55.769Z,13.80
2017-08-17T16:22:23.257Z,13.30
2017-08-17T16:24:50.802Z,11.90
2017-08-17T16:27:18.308Z,14.87
2017-08-17T16:29:45.796Z,12.80
2017-08-17T16:32:13.281Z,14.60
2017-08-17T16:34:40.792Z,15.77
2017-08-17T16:37:08.288Z,13.63
2017-08-17T16:39:35.779Z,12.30
2017-08-17T16:42:03.272Z,13.60
2017-08-17T16:44:30.780Z,14.70
2017-08-17T16:46:58.269Z,14.10
2017-08-17T16:49:25.771Z,14.37
2017-08-17T16:51:53.251Z,14.30
2017-08-17T16:54:20.740Z,12.97
2017-08-17T16:56:48.225Z,17.83
2017-08-17T16:59:15.727Z,15.50
2017-08-17T17:01:43.279Z,16.57
2017-08-17T17:04:10.765Z,15.47
2017-08-17T17:06:38.261Z,17.03
2017-08-17T17:09:05.784Z,19.63
2017-08-17T17:11:33.264Z,15.60
2017-08-17T17:14:01.516Z,14.10
2017-08-17T17:16:29.039Z,13.60
2017-08-17T17:18:56.538Z,14.30
2017-08-17T17:21:24.048Z,13.00
2017-08-17T17:23:51.540Z,13.53
2017-08-17T17:26:19.061Z,13.20
2017-08-17T17:28:46.557Z,15.90
2017-08-17T17:31:14.086Z,13.67
2017-08-17T17:33:41.575Z,15.70
2017-08-17T17:36:09.063Z,14.87
2017-08-17T17:38:36.575Z,15.97
2017-08-17T17:41:04.071Z,17.87
2017-08-17T17:43:31.638Z,19.57
2017-08-17T17:45:59.128Z,16.80
2017-08-17T17:48:26.620Z,16.67
2017-08-17T17:50:54.139Z,17.87
2017-08-17T17:53:21.657Z,18.37
2017-08-17T17:55:49.196Z,20.30
2017-08-17T17:58:16.772Z,19.27
2017-08-17T18:00:44.269Z,21.20
2017-08-17T18:03:12.726Z,18.10
2017-08-17T18:05:40.227Z,23.30
2017-08-17T18:08:07.726Z,21.90
2017-08-17T18:10:35.237Z,22.33
2017-08-17T18:13:02.726Z,22.03
2017-08-17T18:15:30.492Z,21.70
2017-08-17T18:17:58.045Z,22.67
2017-08-17T18:20:25.611Z,23.53
2017-08-17T18:23:00.310Z,22.70
2017-08-17T18:25:27.820Z,24.07
2017-08-17T18:27:55.311Z,22.90
2017-08-17T18:30:22.904Z,26.37
2017-08-17T18:32:50.420Z,27.30
2017-08-17T18:35:17.969Z,27.03
2017-08-17T18:37:45.471Z,24.30
2017-08-17T18:40:12.979Z,24.03
2017-08-17T18:42:41.207Z,23.80
2017-08-17T18:45:08.724Z,28.53
2017-08-17T18:47:36.269Z,25.90
2017-08-17T18:50:04.683Z,27.10
2017-08-17T18:52:32.266Z,24.87
2017-08-17T18:54:59.792Z,24.50
2017-08-17T18:57:27.600Z,24.70
2017-08-17T18:59:55.909Z,23.50
2017-08-17T19:02:23.442Z,26.43
2017-08-17T19:04:51.860Z,28.37
2017-08-17T19:07:19.439Z,27.60
2017-08-17T19:09:48.858Z,27.70
2017-08-17T19:12:16.366Z,28.50
2017-08-17T19:14:44.154Z,28.00
2017-08-17T19:17:11.746Z,30.67
2017-08-17T19:19:40.197Z,30.13
2017-08-17T19:22:07.811Z,30.10
2017-08-17T19:24:36.498Z,30.53
2017-08-17T19:27:04.389Z,32.87
2017-08-17T19:29:32.529Z,34.40
2017-08-17T19:32:08.472Z,31.23
2017-08-17T19:34:40.621Z,34.53
2017-08-17T19:37:18.670Z,32.87
2017-08-17T19:39:54.163Z,33.83
2017-08-17T19:42:22.860Z,33.23
2017-08-17T19:45:02.014Z,33.70
2017-08-17T19:47:33.167Z,34.27
2017-08-17T19:50:02.215Z,35.80
2017-08-17T19:52:34.259Z,34.53
2017-08-17T19:55:04.619Z,34.53
2017-08-17T19:57:37.529Z,36.03
2017-08-17T20:00:13.578Z,36.20
2017-08-17T20:02:46.560Z,33.83
2017-08-17T20:05:15.790Z,34.67
2017-08-17T20:07:46.512Z,34.30
2017-08-17T20:10:15.654Z,35.90
2017-08-17T20:12:44.666Z,38.83
2017-08-17T20:15:19.243Z,35.70
2017-08-17T20:17:51.658Z,40.17
2017-08-17T20:20:24.639Z,38.47
2017-08-17T20:22:59.140Z,40.63
2017-08-17T20:25:30.989Z,39.70
2017-08-17T20:28:00.225Z,40.77
2017-08-17T20:30:28.983Z,40.30
2017-08-17T20:32:57.735Z,39.80
2017-08-17T20:35:32.748Z,38.30
2017-08-17T20:38:00.267Z,42.63
2017-08-17T20:40:28.475Z,41.20
2017-08-17T20:42:55.995Z,41.27
2017-08-17T20:45:23.607Z,42.10
2017-08-17T20:47:51.131Z,40.60
2017-08-17T20:50:18.652Z,43.53
2017-08-17T20:52:46.642Z,45.13
2017-08-17T20:55:14.139Z,45.07
2017-08-17T20:57:42.196Z,43.80
2017-08-17T21:00:09.884Z,44.50
2017-08-17T21:02:37.419Z,42.73
2017-08-17T21:05:04.973Z,45.73
2017-08-17T21:07:32.529Z,44.57
2017-08-17T21:10:00.327Z,45.07
2017-08-17T21:12:27.885Z,47.27
2017-08-17T21:14:55.484Z,44.97
2017-08-17T21:17:23.179Z,41.73
2017-08-17T21:19:50.690Z,44.13
2017-08-17T21:22:19.154Z,44.87
2017-08-17T21:24:47.745Z,43.67
2017-08-17T21:27:15.240Z,41.03
2017-08-17T21:29:42.747Z,44.50
2017-08-17T21:32:10.252Z,41.30
2017-08-17T21:34:37.768Z,44.90
2017-08-17T21:37:05.799Z,42.90
2017-08-17T21:39:35.484Z,43.10
2017-08-17T21:42:02.990Z,39.67
2017-08-17T21:44:30.615Z,44.90
2017-08-17T21:46:59.098Z,43.27
2017-08-17T21:49:26.652Z,39.73
2017-08-17T21:51:54.198Z,41.20
2017-08-17T21:54:21.914Z,39.77
2017-08-17T21:56:49.462Z,38.77
2017-08-17T21:59:17.969Z,39.33
2017-08-17T22:01:46.263Z,43.63
2017-08-17T22:04:14.572Z,42.83
2017-08-17T22:06:42.103Z,41.30
2017-08-17T22:09:09.600Z,41.07
2017-08-17T22:11:38.179Z,39.77
2017-08-17T22:14:06.060Z,39.17
2017-08-17T22:16:33.590Z,40.57
2017-08-17T22:19:01.086Z,39.30
2017-08-17T22:21:28.599Z,39.20
2017-08-17T22:23:56.099Z,40.07
2017-08-17T22:26:23.583Z,42.50
2017-08-17T22:28:51.072Z,41.07
2017-08-17T22:31:18.584Z,42.00
2017-08-17T22:33:46.068Z,40.60
2017-08-17T22:36:13.564Z,39.07
2017-08-17T22:38:41.058Z,40.43
2017-08-17T22:41:08.563Z,36.27
2017-08-17T22:43:36.055Z,36.03
2017-08-17T22:46:03.544Z,38.07
2017-08-17T22:48:31.797Z,37.77
2017-08-17T22:50:59.299Z,35.77
2017-08-17T22:53:26.830Z,39.20
2017-08-17T22:55:54.319Z,36.40
2017-08-17T22:58:21.804Z,35.77
2017-08-17T23:00:49.287Z,36.07
2017-08-17T23:03:16.806Z,34.73
2017-08-17T23:05:44.317Z,35.70
2017-08-17T23:08:11.804Z,34.87
2017-08-17T23:10:39.301Z,34.70
2017-08-17T23:13:06.788Z,31.00
2017-08-17T23:15:34.280Z,34.97
2017-08-17T23:18:01.778Z,37.47
2017-08-17T23:20:29.264Z,33.93
2017-08-17T23:22:56.765Z,33.40
2017-08-17T23:25:24.248Z,33.87
2017-08-17T23:27:51.737Z,36.37
2017-08-17T23:30:19.234Z,34.57
2017-08-17T23:32:46.722Z,36.20
2017-08-17T23:35:14.226Z,33.57
2017-08-17T23:37:42.475Z,33.47
2017-08-17T23:40:09.967Z,31.95
2017-08-17T23:42:37.460Z,34.07
2017-08-17T23:45:05.000Z,34.00
2017-08-17T23:47:32.509Z,34.00
2017-08-17T23:49:59.996Z,32.47
2017-08-17T23:52:28.249Z,31.77
2017-08-17T23:54:56.520Z,33.45
2017-08-17T23:57:24.025Z,31.13
2017-08-17T23:59:51.532Z,30.63
